createdAt,value
2023-05-25T00:01:49.532Z,16.93
2023-05-25T00:04:19.596Z,17.34
2023-05-25T00:06:47.711Z,17.30
2023-05-25T00:09:16.399Z,17.36
2023-05-25T00:11:44.954Z,17.63
2023-05-25T00:14:12.480Z,19.34
2023-05-25T00:16:40.844Z,20.86
2023-05-25T00:19:10.312Z,21.33
2023-05-25T00:21:41.515Z,21.54
2023-05-25T00:24:09.105Z,22.02
2023-05-25T00:26:36.540Z,24.72
2023-05-25T00:29:04.718Z,26.41
2023-05-25T00:31:36.901Z,27.05
2023-05-25T00:34:04.517Z,26.40
2023-05-25T00:36:32.229Z,25.65
2023-05-25T00:38:59.721Z,25.34
2023-05-25T00:41:26.972Z,24.77
2023-05-25T00:43:56.854Z,25.69
2023-05-25T00:46:24.247Z,27.65
2023-05-25T00:48:52.868Z,29.34
2023-05-25T00:51:20.507Z,29.78
2023-05-25T00:53:48.090Z,30.82
2023-05-25T00:56:23.021Z,32.82
2023-05-25T00:58:52.886Z,34.75
2023-05-25T01:01:21.869Z,35.75
2023-05-25T01:03:53.482Z,36.92
2023-05-25T01:06:26.866Z,37.59
2023-05-25T01:08:56.590Z,37.18
2023-05-25T01:11:28.089Z,37.00
2023-05-25T01:13:55.817Z,35.01
2023-05-25T01:16:23.553Z,32.96
2023-05-25T01:18:52.321Z,31.52
2023-05-25T01:21:42.185Z,31.40
2023-05-25T01:24:22.109Z,31.83
2023-05-25T01:27:12.881Z,31.22
2023-05-25T01:29:41.797Z,30.51
2023-05-25T01:32:10.073Z,30.86
2023-05-25T01:34:37.339Z,31.59
2023-05-25T01:37:06.389Z,30.93
2023-05-25T01:39:36.500Z,31.09
2023-05-25T01:42:04.356Z,30.99
2023-05-25T01:44:31.771Z,32.01
2023-05-25T01:47:04.310Z,31.59
2023-05-25T01:49:52.228Z,31.74
2023-05-25T01:52:26.920Z,32.68
2023-05-25T01:55:15.926Z,33.03
2023-05-25T01:57:44.547Z,31.99
2023-05-25T02:00:15.255Z,30.68
2023-05-25T02:02:44.331Z,30.76
2023-05-25T02:05:13.315Z,29.02
2023-05-25T02:07:41.709Z,29.22
2023-05-25T02:10:09.496Z,28.03
2023-05-25T02:12:37.069Z,27.82
2023-05-25T02:15:05.454Z,28.98
2023-05-25T02:17:32.837Z,30.48
2023-05-25T02:20:00.428Z,31.71
2023-05-25T02:22:28.011Z,33.55
2023-05-25T02:24:55.381Z,34.32
2023-05-25T02:27:22.759Z,33.67
2023-05-25T02:29:50.761Z,32.12
2023-05-25T02:32:18.187Z,32.15
2023-05-25T02:34:47.026Z,32.30
2023-05-25T02:37:14.401Z,31.99
2023-05-25T02:39:42.508Z,30.78
2023-05-25T02:42:10.123Z,28.83
2023-05-25T02:44:37.756Z,28.89
2023-05-25T02:47:06.904Z,28.87
2023-05-25T02:49:34.606Z,29.18
2023-05-25T02:52:02.563Z,29.81
2023-05-25T02:54:29.761Z,28.73
2023-05-25T02:56:58.428Z,27.19
2023-05-25T02:59:25.720Z,26.55
2023-05-25T03:01:53.383Z,26.02
2023-05-25T03:04:21.718Z,25.82
2023-05-25T03:06:49.194Z,27.53
2023-05-25T03:09:19.267Z,27.43
2023-05-25T03:11:49.936Z,27.64
2023-05-25T03:14:20.209Z,28.80
2023-05-25T03:16:56.790Z,28.28
2023-05-25T03:19:26.161Z,28.27
2023-05-25T03:21:53.747Z,29.86
2023-05-25T03:24:21.638Z,30.78
2023-05-25T03:26:49.633Z,29.46
2023-05-25T03:29:18.011Z,29.19
2023-05-25T03:31:46.189Z,28.36
2023-05-25T03:34:14.873Z,28.88
2023-05-25T03:36:45.574Z,27.62
2023-05-25T03:39:13.723Z,26.49
2023-05-25T03:41:43.141Z,24.85
2023-05-25T03:44:11.878Z,25.32
2023-05-25T03:46:40.238Z,24.25
2023-05-25T03:49:08.818Z,21.97
2023-05-25T03:51:36.414Z,20.73
2023-05-25T03:54:03.719Z,21.96
2023-05-25T03:56:31.824Z,21.60
2023-05-25T03:59:00.353Z,22.69
2023-05-25T04:01:29.798Z,22.10
2023-05-25T04:03:57.686Z,19.80
2023-05-25T04:06:29.821Z,18.68
2023-05-25T04:08:58.016Z,18.04
2023-05-25T04:11:27.405Z,17.76
2023-05-25T04:13:55.347Z,18.00
2023-05-25T04:16:26.824Z,18.38
2023-05-25T04:18:55.926Z,17.96
2023-05-25T04:21:23.619Z,17.72
2023-05-25T04:23:50.940Z,17.19
2023-05-25T04:26:19.520Z,16.89
2023-05-25T04:28:49.486Z,16.82
2023-05-25T04:31:26.887Z,16.66
2023-05-25T04:34:14.195Z,16.73
2023-05-25T04:36:49.694Z,16.53
2023-05-25T04:39:18.920Z,16.52
2023-05-25T04:41:53.056Z,17.25
2023-05-25T04:44:20.582Z,17.78
2023-05-25T04:46:52.322Z,17.82
2023-05-25T04:49:28.416Z,18.05
2023-05-25T04:51:56.175Z,18.19
2023-05-25T04:54:24.601Z,17.69
2023-05-25T04:56:52.123Z,17.31
2023-05-25T04:59:20.705Z,17.29
2023-05-25T05:01:48.691Z,17.85
2023-05-25T05:04:18.127Z,18.23
2023-05-25T05:06:46.186Z,17.83
2023-05-25T05:09:19.145Z,17.78
2023-05-25T05:11:47.610Z,17.93
2023-05-25T05:14:15.078Z,18.30
2023-05-25T05:16:44.865Z,18.26
2023-05-25T05:19:12.494Z,18.38
2023-05-25T05:21:41.337Z,19.13
2023-05-25T05:24:09.326Z,18.61
2023-05-25T05:26:55.467Z,18.16
2023-05-25T05:29:29.865Z,18.28
2023-05-25T05:31:58.112Z,18.39
2023-05-25T05:34:26.394Z,18.26
2023-05-25T05:36:57.879Z,18.08
2023-05-25T05:39:26.765Z,17.98
2023-05-25T05:41:54.983Z,17.48
2023-05-25T05:44:23.473Z,16.95
2023-05-25T05:46:59.885Z,16.71
2023-05-25T05:49:32.120Z,16.80
2023-05-25T05:52:02.764Z,16.73
2023-05-25T05:54:30.311Z,17.16
2023-05-25T05:57:02.385Z,17.28
2023-05-25T05:59:30.082Z,17.35
2023-05-25T06:01:58.056Z,17.22
2023-05-25T06:04:28.421Z,17.06
2023-05-25T06:06:57.133Z,16.92
2023-05-25T06:09:26.273Z,16.54
2023-05-25T06:11:53.857Z,16.08
2023-05-25T06:14:21.503Z,15.94
2023-05-25T06:16:49.426Z,15.80
2023-05-25T06:19:17.772Z,15.82
2023-05-25T06:21:45.373Z,16.34
2023-05-25T06:24:14.677Z,16.36
2023-05-25T06:26:42.250Z,16.21
2023-05-25T06:29:09.926Z,16.29
2023-05-25T06:31:38.677Z,16.25
2023-05-25T06:34:06.367Z,16.17
2023-05-25T06:36:33.964Z,16.27
2023-05-25T06:39:01.592Z,16.43
2023-05-25T06:41:30.662Z,16.58
2023-05-25T06:43:58.716Z,16.68
2023-05-25T06:46:42.326Z,16.73
2023-05-25T06:49:10.948Z,16.76
2023-05-25T06:51:38.700Z,16.93
2023-05-25T06:54:08.415Z,17.51
2023-05-25T06:56:36.341Z,17.62
2023-05-25T06:59:04.029Z,17.55
2023-05-25T07:01:31.382Z,17.47
2023-05-25T07:03:58.721Z,17.54
2023-05-25T07:06:25.931Z,17.94
2023-05-25T07:08:54.984Z,17.84
2023-05-25T07:11:23.179Z,17.47
2023-05-25T07:13:50.349Z,17.39
2023-05-25T07:16:17.849Z,17.59
2023-05-25T07:18:45.300Z,17.56
2023-05-25T07:21:13.160Z,17.54
2023-05-25T07:23:41.032Z,17.32
2023-05-25T07:26:08.422Z,17.34
2023-05-25T07:28:35.649Z,17.25
2023-05-25T07:31:03.264Z,16.99
2023-05-25T07:33:31.129Z,16.91
2023-05-25T07:35:58.289Z,16.82
2023-05-25T07:38:25.780Z,16.59
2023-05-25T07:40:53.734Z,16.60
2023-05-25T07:43:23.092Z,16.58
2023-05-25T07:45:50.295Z,16.36
2023-05-25T07:48:17.872Z,16.12
2023-05-25T07:50:45.238Z,16.01
2023-05-25T07:53:12.783Z,15.82
2023-05-25T07:55:40.301Z,15.84
2023-05-25T07:58:08.681Z,15.72
2023-05-25T08:00:36.244Z,15.76
2023-05-25T08:03:04.714Z,15.94
2023-05-25T08:05:32.235Z,15.96
2023-05-25T08:08:00.074Z,15.85
2023-05-25T08:10:36.604Z,15.93
2023-05-25T08:13:03.850Z,15.74
2023-05-25T08:15:31.756Z,15.74
2023-05-25T08:17:59.345Z,15.69
2023-05-25T08:20:27.067Z,15.69
2023-05-25T08:22:54.486Z,15.52
2023-05-25T08:25:22.064Z,15.33
2023-05-25T08:27:50.127Z,15.27
2023-05-25T08:30:17.676Z,15.33
2023-05-25T08:32:48.160Z,15.34
2023-05-25T08:35:17.230Z,15.14
2023-05-25T08:37:45.115Z,15.13
2023-05-25T08:40:16.088Z,15.14
2023-05-25T08:42:44.562Z,14.98
2023-05-25T08:45:22.623Z,14.91
2023-05-25T08:47:57.802Z,14.94
2023-05-25T08:50:26.987Z,14.99
2023-05-25T08:52:54.453Z,14.94
2023-05-25T08:55:23.580Z,15.06
2023-05-25T08:57:56.450Z,15.06
2023-05-25T09:00:30.216Z,15.01
2023-05-25T09:03:26.914Z,15.08
2023-05-25T09:05:55.892Z,15.18
2023-05-25T09:08:23.611Z,15.35
2023-05-25T09:10:51.608Z,15.43
2023-05-25T09:13:22.807Z,15.35
2023-05-25T09:15:51.802Z,15.24
2023-05-25T09:18:19.659Z,15.24
2023-05-25T09:20:47.719Z,15.05
2023-05-25T09:23:16.289Z,14.97
2023-05-25T09:25:44.555Z,15.21
2023-05-25T09:30:42.890Z,15.27
2023-05-25T09:33:13.626Z,15.29
2023-05-25T09:35:41.586Z,15.43
2023-05-25T09:38:09.279Z,15.12
2023-05-25T09:40:37.798Z,14.89
2023-05-25T09:43:05.389Z,14.83
2023-05-25T09:45:32.865Z,14.90
2023-05-25T09:48:01.317Z,15.05
2023-05-25T09:50:28.960Z,15.07
2023-05-25T09:52:58.678Z,15.02
2023-05-25T09:55:33.874Z,14.98
2023-05-25T09:58:13.431Z,15.04
2023-05-25T10:00:40.982Z,15.05
2023-05-25T10:03:08.640Z,15.21
2023-05-25T10:05:36.191Z,15.25
2023-05-25T10:08:03.571Z,15.17
2023-05-25T10:10:31.163Z,15.18
2023-05-25T10:12:58.707Z,15.20
2023-05-25T10:15:27.199Z,15.09
2023-05-25T10:17:55.426Z,14.92
2023-05-25T10:20:29.083Z,14.92
2023-05-25T10:23:20.766Z,14.82
2023-05-25T10:25:48.840Z,14.58
2023-05-25T10:28:28.783Z,14.44
2023-05-25T10:30:57.402Z,14.42
2023-05-25T10:33:25.246Z,14.30
2023-05-25T10:36:03.166Z,14.25
2023-05-25T10:38:39.489Z,14.35
2023-05-25T10:41:09.253Z,14.32
2023-05-25T10:43:37.445Z,14.32
2023-05-25T10:46:06.458Z,14.24
2023-05-25T10:48:45.556Z,14.29
2023-05-25T10:51:14.030Z,14.49
2023-05-25T10:53:49.982Z,14.45
2023-05-25T10:56:17.721Z,14.35
2023-05-25T10:58:46.659Z,14.30
2023-05-25T11:01:14.761Z,14.26
2023-05-25T11:03:48.617Z,14.35
2023-05-25T11:06:21.543Z,14.28
2023-05-25T11:09:03.871Z,14.29
2023-05-25T11:11:44.274Z,14.26
2023-05-25T11:14:30.376Z,14.19
2023-05-25T11:17:14.478Z,14.20
2023-05-25T11:19:43.496Z,14.21
2023-05-25T11:22:46.765Z,14.18
2023-05-25T11:25:39.502Z,14.14
2023-05-25T11:28:07.761Z,14.03
2023-05-25T11:30:35.512Z,14.06
2023-05-25T11:33:04.096Z,14.19
2023-05-25T11:35:37.302Z,14.22
2023-05-25T11:38:08.640Z,14.27
2023-05-25T11:40:40.145Z,14.35
2023-05-25T11:43:08.240Z,14.48
2023-05-25T11:45:37.558Z,14.50
2023-05-25T11:48:05.987Z,14.38
2023-05-25T11:50:34.038Z,14.37
2023-05-25T11:53:05.999Z,14.26
2023-05-25T11:55:34.204Z,14.19
2023-05-25T11:58:01.673Z,14.19
2023-05-25T12:00:29.760Z,14.05
2023-05-25T12:02:57.973Z,13.98
2023-05-25T12:05:25.821Z,13.89
2023-05-25T12:07:53.855Z,13.81
2023-05-25T12:10:21.647Z,13.82
2023-05-25T12:12:52.364Z,13.83
2023-05-25T12:15:23.641Z,13.81
2023-05-25T12:17:51.541Z,13.75
2023-05-25T12:20:19.234Z,13.66
2023-05-25T12:22:47.347Z,13.61
2023-05-25T12:25:15.856Z,13.65
2023-05-25T12:27:46.379Z,13.60
2023-05-25T12:30:14.269Z,13.52
2023-05-25T12:33:03.783Z,13.61
2023-05-25T12:35:46.687Z,13.53
2023-05-25T12:38:18.348Z,13.42
2023-05-25T12:40:46.181Z,13.33
2023-05-25T12:43:14.982Z,13.29
2023-05-25T12:45:42.794Z,13.28
2023-05-25T12:48:11.106Z,13.28
2023-05-25T12:50:38.732Z,13.16
2023-05-25T12:53:06.309Z,13.10
2023-05-25T12:55:35.446Z,13.07
2023-05-25T12:58:07.642Z,13.01
2023-05-25T13:00:39.122Z,12.96
2023-05-25T13:03:09.685Z,12.88
2023-05-25T13:05:37.813Z,12.87
2023-05-25T13:08:06.137Z,12.91
2023-05-25T13:10:33.964Z,13.00
2023-05-25T13:13:02.158Z,13.02
2023-05-25T13:15:29.919Z,13.05
2023-05-25T13:17:58.485Z,12.97
2023-05-25T13:20:27.395Z,13.00
2023-05-25T13:22:57.945Z,12.97
2023-05-25T13:25:28.347Z,12.89
2023-05-25T13:27:57.630Z,12.80
2023-05-25T13:30:25.134Z,12.72
2023-05-25T13:32:53.377Z,12.68
2023-05-25T13:35:38.225Z,12.62
2023-05-25T13:38:09.197Z,12.50
2023-05-25T13:40:38.443Z,12.41
2023-05-25T13:43:06.371Z,12.38
2023-05-25T13:45:34.143Z,12.38
2023-05-25T13:48:03.256Z,12.35
2023-05-25T13:50:33.029Z,12.33
2023-05-25T13:53:00.272Z,12.26
2023-05-25T13:55:27.913Z,12.35
2023-05-25T13:57:55.913Z,12.33
2023-05-25T14:00:23.781Z,12.28
2023-05-25T14:02:51.552Z,12.25
2023-05-25T14:05:20.077Z,12.17
2023-05-25T14:07:47.961Z,12.15
2023-05-25T14:10:15.996Z,12.11
2023-05-25T14:12:44.161Z,12.10
2023-05-25T14:15:14.502Z,12.11
2023-05-25T14:17:42.952Z,11.99
2023-05-25T14:20:11.552Z,12.05
2023-05-25T14:22:40.712Z,12.04
2023-05-25T14:25:08.558Z,12.01
2023-05-25T14:27:36.649Z,11.98
2023-05-25T14:30:04.465Z,11.96
2023-05-25T14:32:31.820Z,11.90
2023-05-25T14:34:59.311Z,11.86
2023-05-25T14:37:27.198Z,11.86
2023-05-25T14:39:54.929Z,11.77
2023-05-25T14:42:22.562Z,11.82
2023-05-25T14:44:50.041Z,11.81
2023-05-25T14:47:17.783Z,11.83
2023-05-25T14:49:45.144Z,11.76
2023-05-25T14:52:12.880Z,11.68
2023-05-25T14:54:44.638Z,11.67
2023-05-25T14:57:12.400Z,11.70
2023-05-25T14:59:40.169Z,11.72
2023-05-25T15:02:07.838Z,11.72
2023-05-25T15:04:35.521Z,11.63
2023-05-25T15:07:03.587Z,11.61
2023-05-25T15:09:33.078Z,11.55
2023-05-25T15:12:01.914Z,11.57
2023-05-25T15:14:29.166Z,11.58
2023-05-25T15:16:57.243Z,11.57
2023-05-25T15:19:25.606Z,11.50
2023-05-25T15:21:52.939Z,11.55
2023-05-25T15:24:20.523Z,11.47
2023-05-25T15:26:47.998Z,11.56
2023-05-25T15:29:15.541Z,11.53
2023-05-25T15:31:43.079Z,11.39
2023-05-25T15:34:10.957Z,11.40
2023-05-25T15:36:38.175Z,11.33
2023-05-25T15:39:08.548Z,11.30
2023-05-25T15:41:36.295Z,11.25
2023-05-25T15:44:07.874Z,11.21
2023-05-25T15:46:35.859Z,11.18
2023-05-25T15:49:03.624Z,11.16
2023-05-25T15:51:32.493Z,11.10
2023-05-25T15:54:00.043Z,11.08
2023-05-25T15:56:27.756Z,11.04
2023-05-25T15:58:55.595Z,10.97
2023-05-25T16:01:23.484Z,10.99
2023-05-25T16:03:51.265Z,11.01
2023-05-25T16:06:18.951Z,10.99
2023-05-25T16:08:46.314Z,11.01
2023-05-25T16:11:14.093Z,10.98
2023-05-25T16:13:41.327Z,11.00
2023-05-25T16:16:09.698Z,11.03
2023-05-25T16:18:37.678Z,11.12
2023-05-25T16:21:05.495Z,11.09
2023-05-25T16:23:33.212Z,11.14
2023-05-25T16:26:00.856Z,11.12
2023-05-25T16:28:28.195Z,11.12
2023-05-25T16:30:55.844Z,11.09
2023-05-25T16:33:23.563Z,11.07
2023-05-25T16:35:53.729Z,11.11
2023-05-25T16:38:21.563Z,11.16
2023-05-25T16:40:48.926Z,11.22
2023-05-25T16:43:16.551Z,11.16
2023-05-25T16:45:44.212Z,11.13
2023-05-25T16:48:12.038Z,11.05
2023-05-25T16:50:40.170Z,10.92
2023-05-25T16:53:07.890Z,10.84
2023-05-25T16:55:35.693Z,10.77
2023-05-25T16:58:03.740Z,10.71
2023-05-25T17:00:31.358Z,10.67
2023-05-25T17:02:59.040Z,10.62
2023-05-25T17:05:26.943Z,10.61
2023-05-25T17:07:54.419Z,10.60
2023-05-25T17:10:22.132Z,10.59
2023-05-25T17:12:49.405Z,10.57
2023-05-25T17:15:17.199Z,10.59
2023-05-25T17:17:44.679Z,10.59
2023-05-25T17:20:12.201Z,10.60
2023-05-25T17:22:39.844Z,10.55
2023-05-25T17:25:09.320Z,10.59
2023-05-25T17:27:36.975Z,10.58
2023-05-25T17:30:04.971Z,10.58
2023-05-25T17:32:32.678Z,10.57
2023-05-25T17:35:00.600Z,10.54
2023-05-25T17:37:28.369Z,10.53
2023-05-25T17:39:56.157Z,10.50
2023-05-25T17:42:23.856Z,10.50
2023-05-25T17:44:51.256Z,10.42
2023-05-25T17:47:18.947Z,10.39
2023-05-25T17:49:46.537Z,10.33
2023-05-25T17:52:14.133Z,10.30
2023-05-25T17:54:41.491Z,10.26
2023-05-25T17:57:09.404Z,10.25
2023-05-25T17:59:36.870Z,10.26
2023-05-25T18:05:10.796Z,10.14
2023-05-25T18:07:38.570Z,10.11
2023-05-25T18:19:20.849Z,9.94
2023-05-25T18:21:50.264Z,9.88
2023-05-25T18:24:17.865Z,9.91
2023-05-25T18:26:46.401Z,10.03
2023-05-25T18:29:14.001Z,10.13
2023-05-25T18:31:46.000Z,10.18
2023-05-25T18:34:13.409Z,10.13
2023-05-25T18:36:40.730Z,10.06
2023-05-25T18:39:08.354Z,10.06
2023-05-25T18:41:36.374Z,10.04
2023-05-25T18:44:03.974Z,9.96
2023-05-25T18:46:31.865Z,9.88
2023-05-25T18:49:00.339Z,9.83
2023-05-25T18:51:27.785Z,9.79
2023-05-25T18:53:55.873Z,9.76
2023-05-25T18:56:23.426Z,9.71
2023-05-25T18:58:54.510Z,9.72
2023-05-25T19:01:22.882Z,9.71
2023-05-25T19:03:50.800Z,9.67
2023-05-25T19:06:18.950Z,9.65
2023-05-25T19:08:49.765Z,9.51
2023-05-25T19:30:05.381Z,9.24
2023-05-25T19:32:33.833Z,9.24
2023-05-25T19:35:01.810Z,9.24
2023-05-25T19:37:29.101Z,9.27
2023-05-25T19:39:58.133Z,9.30
2023-05-25T19:42:25.561Z,9.36
2023-05-25T19:44:53.208Z,9.35
2023-05-25T19:47:21.725Z,9.35
2023-05-25T19:49:54.465Z,9.34
2023-05-25T19:52:22.108Z,9.26
2023-05-25T19:54:50.784Z,9.29
2023-05-25T19:57:19.706Z,9.27
2023-05-25T19:59:47.185Z,9.31
2023-05-25T20:02:14.862Z,9.32
2023-05-25T20:04:42.716Z,9.34
2023-05-25T20:07:10.537Z,9.38
2023-05-25T20:09:38.999Z,9.41
2023-05-25T20:12:07.059Z,9.37
2023-05-25T20:14:35.163Z,9.35
2023-05-25T20:17:02.362Z,9.40
2023-05-25T20:19:29.776Z,9.40
2023-05-25T20:21:59.600Z,9.46
2023-05-25T20:24:26.978Z,9.37
2023-05-25T20:26:56.480Z,9.27
2023-05-25T20:29:23.909Z,9.20
2023-05-25T20:31:54.644Z,9.15
2023-05-25T20:34:22.630Z,9.14
2023-05-25T21:33:00.515Z,7.87
2023-05-25T21:35:42.662Z,7.94
2023-05-25T21:38:20.320Z,8.05
2023-05-25T21:40:56.475Z,8.17
2023-05-25T21:43:56.679Z,8.29
2023-05-25T21:46:23.921Z,8.34
2023-05-25T21:48:51.436Z,8.46
2023-05-25T21:51:18.770Z,8.54
2023-05-25T21:53:48.761Z,8.61
2023-05-25T21:56:16.531Z,8.68
2023-05-25T21:58:44.539Z,8.74
2023-05-25T22:01:12.184Z,8.80
2023-05-25T22:03:39.579Z,8.83
2023-05-25T22:06:07.093Z,8.84
2023-05-25T22:08:35.555Z,8.89
2023-05-25T22:11:02.821Z,8.95
2023-05-25T22:13:30.045Z,8.96
2023-05-25T22:15:57.430Z,9.01
2023-05-25T22:18:25.231Z,9.02
2023-05-25T22:20:52.936Z,9.16
2023-05-25T22:23:21.089Z,9.51
2023-05-25T22:25:48.423Z,10.09
2023-05-25T22:28:16.517Z,10.62
2023-05-25T22:30:44.207Z,11.04
2023-05-25T22:33:11.851Z,11.48
2023-05-25T22:35:39.450Z,11.87
2023-05-25T22:38:06.997Z,12.20
2023-05-25T22:40:34.656Z,12.17
2023-05-25T22:43:01.813Z,11.96
2023-05-25T22:45:29.178Z,11.85
2023-05-25T22:47:56.554Z,11.98
2023-05-25T22:50:24.080Z,12.42
2023-05-25T22:52:51.890Z,12.77
2023-05-25T22:55:19.205Z,13.30
2023-05-25T22:57:46.977Z,13.67
2023-05-25T23:00:15.010Z,13.58
2023-05-25T23:02:42.605Z,12.99
2023-05-25T23:05:10.811Z,13.11
2023-05-25T23:07:38.315Z,13.51
2023-05-25T23:10:06.097Z,13.40
2023-05-25T23:12:33.309Z,12.85
2023-05-25T23:15:01.133Z,12.47
2023-05-25T23:17:28.872Z,13.19
2023-05-25T23:19:56.405Z,13.87
2023-05-25T23:22:24.116Z,14.02
2023-05-25T23:24:51.786Z,13.68
2023-05-25T23:27:19.250Z,13.46
2023-05-25T23:29:46.391Z,13.48
2023-05-25T23:32:13.859Z,14.01
2023-05-25T23:34:41.482Z,15.26
2023-05-25T23:37:09.285Z,17.22
2023-05-25T23:39:36.725Z,19.15
2023-05-25T23:42:04.367Z,21.12
2023-05-25T23:44:31.917Z,23.18
2023-05-25T23:46:59.601Z,24.93
2023-05-25T23:49:26.916Z,26.09
2023-05-25T23:51:54.474Z,26.79
2023-05-25T23:54:22.113Z,26.61
2023-05-25T23:56:49.916Z,26.09
2023-05-25T23:59:17.697Z,25.73
